An Run Da 2 — BHNX — position and weather

sailwx.info

Track history (hours):
 
Tides and Currents Weather Stations Pressure Air Temp Water Temp Dewpoint Dewpoint Depression Visibility Wind Speed Wind Dir Waves Ship Positions

An Run Da 2

Last reported at 2017-May-27 04:13 UTC. Time now 2017-May-30 07:23 UTC.
Position N 38°17' E 119°51'.

Length 147 m; draft 8.5 m.

MMSI: 413360230.

Date/timePositionNaut miles runAvg speedWind from/ knotsBaromVisibWave heightAir tempDewpointWater temp
2017-May-27 04:13N 38°17' E 119°51'2910.1
2017-May-27 01:23N 38°05' E 120°24'4 9.2
2017-May-27 01:00N 38°04' E 120°28'5 9.0
2017-May-27 00:30N 38°03' E 120°34'4 8.5
2017-May-27 00:00N 38°02' E 120°39'4 7.5
2017-May-26 23:30N 38°01' E 120°44'4 7.4
2017-May-26 23:00N 38°00' E 120°48'4 7.9
2017-May-26 22:30N 37°60' E 120°53'4 8.0
2017-May-26 22:00N 37°59' E 120°58'5 8.3
2017-May-26 21:25N 37°58' E 121°05'5 8.4
2017-May-26 20:52N 37°57' E 121°10'3 8.5
2017-May-26 20:30N 37°56' E 121°14'5 8.8
2017-May-26 19:59N 37°55' E 121°20'4 8.9
2017-May-26 19:30N 37°54' E 121°25'4 9.1
2017-May-26 19:00N 37°52' E 121°30'5 9.2
2017-May-26 18:30N 37°51' E 121°36'5 9.3
2017-May-26 18:00N 37°50' E 121°41'5 9.3
2017-May-26 17:30N 37°49' E 121°47'5 8.9
2017-May-26 17:00N 37°48' E 121°53'5 8.8
2017-May-26 16:24N 37°46' E 121°59'3 8.6
2017-May-26 16:00N 37°45' E 122°03'298 8.4
2017-May-25 04:39N 32°50' E 122°55'210.5
2017-May-25 04:26N 32°47' E 122°54'  
Track history (hours):
 
Tides and Currents Weather Stations Pressure Air Temp Water Temp Dewpoint Dewpoint Depression Visibility Wind Speed Wind Dir Waves Ship Positions

An Run Da 2

Last reported at 2017-May-27 04:13 UTC. Time now 2017-May-30 07:23 UTC.
Position N 38°17' E 119°51'.

Length 147 m; draft 8.5 m.

MMSI: 413360230.

Date/timePositionNaut miles runAvg speedWind from/ knotsBaromVisibWave heightAir tempDewpointWater temp
2017-May-27 04:13N 38°17' E 119°51'2910.1
2017-May-27 01:23N 38°05' E 120°24'4 9.2
2017-May-27 01:00N 38°04' E 120°28'5 9.0
2017-May-27 00:30N 38°03' E 120°34'4 8.5
2017-May-27 00:00N 38°02' E 120°39'4 7.5
2017-May-26 23:30N 38°01' E 120°44'4 7.4
2017-May-26 23:00N 38°00' E 120°48'4 7.9
2017-May-26 22:30N 37°60' E 120°53'4 8.0
2017-May-26 22:00N 37°59' E 120°58'5 8.3
2017-May-26 21:25N 37°58' E 121°05'5 8.4
2017-May-26 20:52N 37°57' E 121°10'3 8.5
2017-May-26 20:30N 37°56' E 121°14'5 8.8
2017-May-26 19:59N 37°55' E 121°20'4 8.9
2017-May-26 19:30N 37°54' E 121°25'4 9.1
2017-May-26 19:00N 37°52' E 121°30'5 9.2
2017-May-26 18:30N 37°51' E 121°36'5 9.3
2017-May-26 18:00N 37°50' E 121°41'5 9.3
2017-May-26 17:30N 37°49' E 121°47'5 8.9
2017-May-26 17:00N 37°48' E 121°53'5 8.8
2017-May-26 16:24N 37°46' E 121°59'3 8.6
2017-May-26 16:00N 37°45' E 122°03'298 8.4
2017-May-25 04:39N 32°50' E 122°55'210.5
2017-May-25 04:26N 32°47' E 122°54'  

Dump ship's entire track history